Time;durP1;ratioP1;P1;durP2;ratioP2;P2;SDS_P1;SDS_P2;PMS_P1;PMS_P2;Temp;Humidity;BMP_temperature;BMP_pressure;BME280_temperature;BME280_humidity;BME280_pressure;Samples;Min_cycle;Max_cycle;Signal;HPM_P1;HPM_P2
2023/04/22 00:02:08;;;;;;;;;;;12.70;99.90;;;;;;5073331;28;19916;-71
2023/04/22 00:04:34;;;;;;;;;;;12.80;99.90;;;;;;5073390;28;19908;-70
2023/04/22 00:07:00;;;;;;;;;;;12.70;99.90;;;;;;5072678;28;19915;-71
2023/04/22 00:09:26;;;;;;;;;;;12.70;99.90;;;;;;5073166;28;20282;-70
2023/04/22 00:11:51;;;;;;;;;;;12.70;99.90;;;;;;5072151;28;19980;-71
2023/04/22 00:14:17;;;;;;;;;;;12.60;99.90;;;;;;5072535;28;20591;-70
2023/04/22 00:16:46;;;;;;;;;;;12.70;99.90;;;;;;5072019;28;19908;-71
2023/04/22 00:19:11;;;;;;;;;;;12.60;99.90;;;;;;5071695;28;20437;-73
2023/04/22 00:21:37;;;;;;;;;;;12.60;99.90;;;;;;5075164;28;20034;-71
2023/04/22 00:24:03;;;;;;;;;;;12.60;99.90;;;;;;5076875;28;19915;-71
2023/04/22 00:26:29;;;;;;;;;;;12.50;99.90;;;;;;5058310;28;19919;-70
2023/04/22 00:28:54;;;;;;;;;;;12.50;99.90;;;;;;5074386;28;19913;-70
2023/04/22 00:31:20;;;;;;;;;;;12.50;99.90;;;;;;5074719;28;20267;-70
2023/04/22 00:33:45;;;;;;;;;;;12.50;99.90;;;;;;5076392;28;20044;-70
2023/04/22 00:36:11;;;;;;;;;;;12.50;99.90;;;;;;5075931;28;19958;-70
2023/04/22 00:38:37;;;;;;;;;;;12.50;99.90;;;;;;5076183;28;19931;-70
2023/04/22 00:41:03;;;;;;;;;;;12.40;99.90;;;;;;5076076;28;19908;-70
2023/04/22 00:43:29;;;;;;;;;;;12.30;99.90;;;;;;5076194;28;19961;-72
2023/04/22 00:45:56;;;;;;;;;;;12.30;99.90;;;;;;5074387;28;20320;-72
2023/04/22 00:48:23;;;;;;;;;;;12.40;99.90;;;;;;5075451;28;19999;-70
2023/04/22 00:50:49;;;;;;;;;;;12.40;99.90;;;;;;5076215;28;19915;-71
2023/04/22 00:53:14;;;;;;;;;;;12.50;99.90;;;;;;5074447;28;19908;-70
2023/04/22 00:55:40;;;;;;;;;;;12.50;99.90;;;;;;5074451;28;19915;-70
2023/04/22 00:58:06;;;;;;;;;;;12.50;99.90;;;;;;5075260;28;19916;-71
2023/04/22 01:00:33;;;;;;;;;;;12.50;99.90;;;;;;5075430;28;19920;-70
2023/04/22 01:02:59;;;;;;;;;;;12.50;99.90;;;;;;5076088;28;19915;-70
2023/04/22 01:05:25;;;;;;;;;;;12.50;99.90;;;;;;5074138;28;20047;-70
2023/04/22 01:07:51;;;;;;;;;;;12.50;99.90;;;;;;5074284;28;19912;-70
2023/04/22 01:10:17;;;;;;;;;;;12.50;99.90;;;;;;5075797;28;19970;-71
2023/04/22 01:12:43;;;;;;;;;;;12.50;99.90;;;;;;5074696;28;19952;-70
2023/04/22 01:15:09;;;;;;;;;;;12.40;99.90;;;;;;5073993;28;19936;-70
2023/04/22 01:17:35;;;;;;;;;;;12.40;99.90;;;;;;5074092;28;19964;-70
2023/04/22 01:20:02;;;;;;;;;;;12.30;99.90;;;;;;5074738;28;19959;-71
2023/04/22 01:22:32;;;;;;;;;;;12.20;99.90;;;;;;5074692;28;19916;-70
2023/04/22 01:24:58;;;;;;;;;;;12.20;99.90;;;;;;5074174;28;19915;-70
2023/04/22 01:27:23;;;;;;;;;;;12.10;99.90;;;;;;5073992;28;19916;-70
2023/04/22 01:29:51;;;;;;;;;;;12.10;99.90;;;;;;5074076;28;20054;-70
2023/04/22 01:32:16;;;;;;;;;;;12.00;99.90;;;;;;5073517;28;19923;-70
2023/04/22 01:34:42;;;;;;;;;;;12.10;99.90;;;;;;5074159;28;20382;-71
2023/04/22 01:37:08;;;;;;;;;;;12.10;99.90;;;;;;5073204;28;19962;-70
2023/04/22 01:39:34;;;;;;;;;;;12.10;99.90;;;;;;5074002;28;20121;-70
2023/04/22 01:42:00;;;;;;;;;;;12.00;99.90;;;;;;5075992;28;19909;-71
2023/04/22 01:44:26;;;;;;;;;;;12.00;99.90;;;;;;5073871;28;20003;-72
2023/04/22 01:46:52;;;;;;;;;;;12.00;99.90;;;;;;5074254;28;20346;-72
2023/04/22 01:49:18;;;;;;;;;;;12.00;99.90;;;;;;5075088;28;19908;-70
2023/04/22 01:51:44;;;;;;;;;;;12.00;99.90;;;;;;5075459;28;19916;-70
2023/04/22 01:54:09;;;;;;;;;;;11.90;99.90;;;;;;5073899;28;20002;-75
2023/04/22 01:56:35;;;;;;;;;;;11.90;99.90;;;;;;5075154;28;19970;-71
2023/04/22 01:59:01;;;;;;;;;;;12.00;99.90;;;;;;5074697;28;19919;-72
2023/04/22 02:01:27;;;;;;;;;;;12.00;99.90;;;;;;5075151;28;20371;-73
2023/04/22 02:03:52;;;;;;;;;;;12.00;99.90;;;;;;5074698;28;20358;-70
2023/04/22 02:06:18;;;;;;;;;;;12.00;99.90;;;;;;5072117;28;19994;-71
2023/04/22 02:08:44;;;;;;;;;;;12.00;99.90;;;;;;5072075;28;20011;-71
2023/04/22 02:11:09;;;;;;;;;;;12.00;99.90;;;;;;5072426;28;19909;-70
2023/04/22 02:13:36;;;;;;;;;;;12.00;99.90;;;;;;5074527;28;19909;-70
2023/04/22 02:16:02;;;;;;;;;;;12.00;99.90;;;;;;5074653;28;20267;-70
2023/04/22 02:18:27;;;;;;;;;;;12.10;99.90;;;;;;5074219;28;20003;-70
2023/04/22 02:20:53;;;;;;;;;;;12.20;99.90;;;;;;5074537;28;19912;-70
2023/04/22 02:23:19;;;;;;;;;;;12.20;99.90;;;;;;5073006;28;19908;-70
2023/04/22 02:25:50;;;;;;;;;;;12.30;99.90;;;;;;5073283;28;19915;-70
2023/04/22 02:28:17;;;;;;;;;;;12.30;99.90;;;;;;5073929;28;19917;-70
2023/04/22 02:30:42;;;;;;;;;;;12.40;99.90;;;;;;5074877;28;19917;-70
2023/04/22 02:33:08;;;;;;;;;;;12.40;99.90;;;;;;5074244;28;19962;-70
2023/04/22 02:35:34;;;;;;;;;;;12.30;99.90;;;;;;5072607;28;19962;-70
2023/04/22 02:37:59;;;;;;;;;;;12.20;99.90;;;;;;5072052;28;19915;-70
2023/04/22 02:40:25;;;;;;;;;;;12.10;99.90;;;;;;5074230;28;19955;-70
2023/04/22 02:42:51;;;;;;;;;;;12.10;99.90;;;;;;5074025;28;19915;-70
2023/04/22 02:45:16;;;;;;;;;;;12.00;99.90;;;;;;5071996;28;19995;-69
2023/04/22 02:47:42;;;;;;;;;;;12.00;99.90;;;;;;5070507;28;19909;-70
2023/04/22 02:50:08;;;;;;;;;;;11.90;99.90;;;;;;5071045;28;19909;-70
2023/04/22 02:52:34;;;;;;;;;;;12.00;99.90;;;;;;5070738;28;19908;-71
2023/04/22 02:55:00;;;;;;;;;;;12.00;99.90;;;;;;5070606;28;19908;-70
2023/04/22 02:57:25;;;;;;;;;;;11.90;99.90;;;;;;5070235;28;19991;-70
2023/04/22 02:59:52;;;;;;;;;;;11.90;99.90;;;;;;5071877;28;20012;-71
2023/04/22 03:02:17;;;;;;;;;;;11.90;99.90;;;;;;5071956;28;19941;-70
2023/04/22 03:04:43;;;;;;;;;;;11.90;99.90;;;;;;5071815;28;19909;-70
2023/04/22 03:07:09;;;;;;;;;;;11.90;99.90;;;;;;5071491;28;19909;-70
2023/04/22 03:09:35;;;;;;;;;;;11.80;99.90;;;;;;5071721;28;20022;-70
2023/04/22 03:12:01;;;;;;;;;;;11.80;99.90;;;;;;5070445;28;19926;-71
2023/04/22 03:14:27;;;;;;;;;;;11.80;99.90;;;;;;5072060;28;19940;-70
2023/04/22 03:16:53;;;;;;;;;;;11.80;99.90;;;;;;5072292;28;19908;-70
2023/04/22 03:19:18;;;;;;;;;;;11.90;99.90;;;;;;5072859;28;20381;-70
2023/04/22 03:21:44;;;;;;;;;;;11.90;99.90;;;;;;5072205;28;19915;-70
2023/04/22 03:24:09;;;;;;;;;;;11.90;99.90;;;;;;5073072;28;20274;-71
2023/04/22 03:26:35;;;;;;;;;;;11.90;99.90;;;;;;5071001;28;19919;-71
2023/04/22 03:29:01;;;;;;;;;;;11.80;99.90;;;;;;5071125;28;20007;-71
2023/04/22 03:31:27;;;;;;;;;;;11.80;99.90;;;;;;5074110;28;19909;-70
2023/04/22 03:33:52;;;;;;;;;;;11.80;99.90;;;;;;5073922;28;19908;-70
2023/04/22 03:36:18;;;;;;;;;;;11.70;99.90;;;;;;5073267;28;19908;-71
2023/04/22 03:38:44;;;;;;;;;;;11.80;99.90;;;;;;5072515;28;19916;-72
2023/04/22 03:41:09;;;;;;;;;;;11.80;99.90;;;;;;5073825;28;19962;-71
2023/04/22 03:43:35;;;;;;;;;;;11.80;99.90;;;;;;5073540;28;19909;-71
2023/04/22 03:46:01;;;;;;;;;;;11.70;99.90;;;;;;5072767;28;19913;-71
2023/04/22 03:48:28;;;;;;;;;;;11.70;99.90;;;;;;5072035;28;20267;-71
2023/04/22 03:50:54;;;;;;;;;;;11.70;99.90;;;;;;5074125;28;19970;-71
2023/04/22 03:53:20;;;;;;;;;;;11.60;99.90;;;;;;5072809;28;20366;-71
2023/04/22 03:55:46;;;;;;;;;;;11.60;99.90;;;;;;5075628;28;20363;-70
2023/04/22 03:58:11;;;;;;;;;;;11.70;99.90;;;;;;5075941;28;19912;-70
2023/04/22 04:00:37;;;;;;;;;;;11.80;99.90;;;;;;5076433;28;19920;-71
2023/04/22 04:03:03;;;;;;;;;;;11.90;99.90;;;;;;5080236;28;19920;-71
2023/04/22 04:05:29;;;;;;;;;;;12.00;99.90;;;;;;5080651;28;19938;-72
2023/04/22 04:07:55;;;;;;;;;;;11.90;99.90;;;;;;5077883;28;19958;-71
2023/04/22 04:10:21;;;;;;;;;;;11.90;99.90;;;;;;5079678;28;19912;-71
2023/04/22 04:12:46;;;;;;;;;;;11.80;99.90;;;;;;5078794;28;20354;-71
2023/04/22 04:15:12;;;;;;;;;;;11.70;99.90;;;;;;5078667;28;20379;-71
2023/04/22 04:17:38;;;;;;;;;;;11.60;99.90;;;;;;5077982;28;19966;-72
2023/04/22 04:20:04;;;;;;;;;;;11.50;99.90;;;;;;5078445;28;20367;-71
2023/04/22 04:22:30;;;;;;;;;;;11.50;99.90;;;;;;5078726;28;20050;-71
2023/04/22 04:24:55;;;;;;;;;;;11.40;99.90;;;;;;5077120;28;19912;-71
2023/04/22 04:27:22;;;;;;;;;;;11.50;99.90;;;;;;5076202;28;19963;-70
2023/04/22 04:29:48;;;;;;;;;;;11.50;99.90;;;;;;5078035;28;20324;-71
2023/04/22 04:32:17;;;;;;;;;;;11.50;99.90;;;;;;5076863;28;20233;-70
2023/04/22 04:34:42;;;;;;;;;;;11.50;99.90;;;;;;5077135;28;19914;-70
2023/04/22 04:37:08;;;;;;;;;;;11.50;99.90;;;;;;5075668;28;20362;-72
2023/04/22 04:39:34;;;;;;;;;;;11.60;99.90;;;;;;5075409;28;19916;-71
2023/04/22 04:41:59;;;;;;;;;;;11.50;99.90;;;;;;5076721;28;19936;-71
2023/04/22 04:44:26;;;;;;;;;;;11.50;99.90;;;;;;5077125;28;20358;-71
2023/04/22 04:46:53;;;;;;;;;;;11.50;99.90;;;;;;5076455;28;20388;-70
2023/04/22 04:49:19;;;;;;;;;;;11.40;99.90;;;;;;5076545;28;19912;-71
2023/04/22 04:51:45;;;;;;;;;;;11.40;99.90;;;;;;5076290;28;20290;-71
2023/04/22 04:54:10;;;;;;;;;;;11.40;99.90;;;;;;5075278;28;20070;-70
2023/04/22 04:56:36;;;;;;;;;;;11.40;99.90;;;;;;5076634;28;19954;-70
2023/04/22 04:59:02;;;;;;;;;;;11.40;99.90;;;;;;5076060;28;20557;-70
2023/04/22 05:01:28;;;;;;;;;;;11.40;99.90;;;;;;5075197;28;19912;-71
2023/04/22 05:03:53;;;;;;;;;;;11.50;99.90;;;;;;5076371;28;20374;-70
2023/04/22 05:06:19;;;;;;;;;;;11.40;99.90;;;;;;5074724;28;20329;-72
2023/04/22 05:08:45;;;;;;;;;;;11.50;99.90;;;;;;5075607;28;19948;-71
2023/04/22 05:11:10;;;;;;;;;;;11.50;99.90;;;;;;5076197;28;20325;-70
2023/04/22 05:13:36;;;;;;;;;;;11.70;99.90;;;;;;5076480;28;19962;-71
2023/04/22 05:16:02;;;;;;;;;;;11.80;99.90;;;;;;5076393;28;19916;-71
2023/04/22 05:18:27;;;;;;;;;;;11.80;99.90;;;;;;5075962;28;19909;-71
2023/04/22 05:20:53;;;;;;;;;;;11.90;99.90;;;;;;5074607;28;19919;-71
2023/04/22 05:23:19;;;;;;;;;;;12.00;99.90;;;;;;5074731;28;20512;-71
2023/04/22 05:25:45;;;;;;;;;;;12.20;99.90;;;;;;5076016;28;19912;-71
2023/04/22 05:28:10;;;;;;;;;;;12.30;99.90;;;;;;5075341;28;19927;-71
2023/04/22 05:30:36;;;;;;;;;;;12.40;99.90;;;;;;5074116;28;19909;-71
2023/04/22 05:33:02;;;;;;;;;;;12.50;99.90;;;;;;5074705;28;19958;-72
2023/04/22 05:35:27;;;;;;;;;;;12.60;99.90;;;;;;5073021;28;19909;-70
2023/04/22 05:37:53;;;;;;;;;;;12.80;99.90;;;;;;5073962;28;19991;-70
2023/04/22 05:40:19;;;;;;;;;;;12.90;99.90;;;;;;5075377;28;19913;-71
2023/04/22 05:42:44;;;;;;;;;;;13.00;99.90;;;;;;5075285;28;19909;-71
2023/04/22 05:45:10;;;;;;;;;;;13.00;99.90;;;;;;5075276;28;20011;-70
2023/04/22 05:47:35;;;;;;;;;;;13.20;99.90;;;;;;5074900;28;19910;-71
2023/04/22 05:50:01;;;;;;;;;;;13.30;99.90;;;;;;5075350;28;19913;-71
2023/04/22 05:52:27;;;;;;;;;;;13.40;99.90;;;;;;5075208;28;20385;-71
2023/04/22 05:54:52;;;;;;;;;;;13.60;99.90;;;;;;5074020;28;19948;-71
2023/04/22 05:57:18;;;;;;;;;;;13.70;99.90;;;;;;5073624;28;19932;-71
2023/04/22 05:59:45;;;;;;;;;;;13.70;99.90;;;;;;5073686;28;19912;-71
2023/04/22 06:02:10;;;;;;;;;;;13.80;99.90;;;;;;5074997;28;19908;-71
2023/04/22 06:04:36;;;;;;;;;;;13.90;99.90;;;;;;5075239;28;20003;-71
2023/04/22 06:07:02;;;;;;;;;;;14.00;99.90;;;;;;5074918;28;19920;-72
2023/04/22 06:09:27;;;;;;;;;;;14.00;99.90;;;;;;5073212;28;19915;-71
2023/04/22 06:11:53;;;;;;;;;;;14.10;99.90;;;;;;5073662;28;20397;-71
2023/04/22 06:14:18;;;;;;;;;;;14.20;99.90;;;;;;5074945;28;19912;-71
2023/04/22 06:16:44;;;;;;;;;;;14.30;99.90;;;;;;5074976;28;19961;-71
2023/04/22 06:19:10;;;;;;;;;;;14.40;99.90;;;;;;5072384;28;19913;-72
2023/04/22 06:21:38;;;;;;;;;;;14.50;99.90;;;;;;5073262;28;19908;-71
2023/04/22 06:24:04;;;;;;;;;;;14.60;99.90;;;;;;5074237;28;19916;-72
2023/04/22 06:26:30;;;;;;;;;;;14.70;99.90;;;;;;5074327;28;19915;-71
2023/04/22 06:28:56;;;;;;;;;;;14.80;99.90;;;;;;5074661;28;19917;-71
2023/04/22 06:31:21;;;;;;;;;;;15.00;99.90;;;;;;5074566;28;19912;-71
2023/04/22 06:33:47;;;;;;;;;;;15.00;99.90;;;;;;5074825;28;19917;-71
2023/04/22 06:36:13;;;;;;;;;;;15.00;99.90;;;;;;5074659;28;19958;-71
2023/04/22 06:38:38;;;;;;;;;;;15.10;99.90;;;;;;5074023;28;19931;-70
2023/04/22 06:41:04;;;;;;;;;;;15.20;99.90;;;;;;5074367;28;19912;-70
2023/04/22 06:43:30;;;;;;;;;;;15.20;99.90;;;;;;5073535;28;19916;-71
2023/04/22 06:45:55;;;;;;;;;;;15.20;99.90;;;;;;5074573;28;20382;-71
2023/04/22 06:48:21;;;;;;;;;;;15.30;99.90;;;;;;5074029;28;19912;-70
2023/04/22 06:50:46;;;;;;;;;;;15.40;99.90;;;;;;5073888;28;20008;-71
2023/04/22 06:53:12;;;;;;;;;;;15.40;99.90;;;;;;5072373;28;20450;-71
2023/04/22 06:55:38;;;;;;;;;;;15.50;99.90;;;;;;5074205;28;19909;-71
2023/04/22 06:58:03;;;;;;;;;;;15.50;99.90;;;;;;5072621;28;19915;-71
2023/04/22 07:00:29;;;;;;;;;;;15.50;99.90;;;;;;5072915;28;20299;-69
2023/04/22 07:02:55;;;;;;;;;;;15.50;99.90;;;;;;5073391;28;20389;-71
2023/04/22 07:05:20;;;;;;;;;;;15.50;99.90;;;;;;5072861;28;19931;-71
2023/04/22 07:07:46;;;;;;;;;;;15.50;99.90;;;;;;5072540;28;19908;-71
2023/04/22 07:10:15;;;;;;;;;;;15.50;99.90;;;;;;5072822;28;19912;-71
2023/04/22 07:12:41;;;;;;;;;;;15.60;99.90;;;;;;5073670;28;19931;-71
2023/04/22 07:15:06;;;;;;;;;;;15.50;99.90;;;;;;5075879;28;19909;-71
2023/04/22 07:17:32;;;;;;;;;;;15.60;99.90;;;;;;5074987;28;20374;-70
2023/04/22 07:19:58;;;;;;;;;;;15.70;99.90;;;;;;5075416;28;19912;-70
2023/04/22 07:22:23;;;;;;;;;;;15.80;99.90;;;;;;5076945;28;20094;-71
2023/04/22 07:24:49;;;;;;;;;;;15.80;99.90;;;;;;5073604;28;19908;-71
2023/04/22 07:27:15;;;;;;;;;;;15.90;99.90;;;;;;5073705;28;19924;-70
2023/04/22 07:29:40;;;;;;;;;;;15.90;99.90;;;;;;5072202;28;20382;-71
2023/04/22 07:32:06;;;;;;;;;;;16.00;99.90;;;;;;5073903;28;19909;-70
2023/04/22 07:34:32;;;;;;;;;;;16.00;99.90;;;;;;5074041;28;19978;-71
2023/04/22 07:36:58;;;;;;;;;;;16.00;99.90;;;;;;5072786;28;19922;-71
2023/04/22 07:39:24;;;;;;;;;;;16.00;99.90;;;;;;5073147;28;19916;-71
2023/04/22 07:41:50;;;;;;;;;;;16.10;99.90;;;;;;5073822;28;20382;-71
2023/04/22 07:44:20;;;;;;;;;;;16.10;99.90;;;;;;5074408;28;19909;-71
2023/04/22 07:46:49;;;;;;;;;;;16.00;99.90;;;;;;5072936;28;19947;-71
2023/04/22 07:49:16;;;;;;;;;;;16.00;99.90;;;;;;5073911;28;19916;-71
2023/04/22 07:51:42;;;;;;;;;;;16.00;99.90;;;;;;5072546;28;20175;-70
2023/04/22 07:54:08;;;;;;;;;;;16.00;99.90;;;;;;5073951;28;19915;-71
2023/04/22 07:56:34;;;;;;;;;;;16.00;99.90;;;;;;5074083;28;19909;-71
2023/04/22 07:58:59;;;;;;;;;;;16.00;99.90;;;;;;5071875;28;20283;-70
2023/04/22 08:01:25;;;;;;;;;;;16.00;99.90;;;;;;5073779;28;19912;-71
2023/04/22 08:03:51;;;;;;;;;;;16.00;99.90;;;;;;5072614;28;19909;-71
2023/04/22 08:06:16;;;;;;;;;;;16.00;99.90;;;;;;5073650;28;19951;-71
2023/04/22 08:08:42;;;;;;;;;;;16.10;99.90;;;;;;5072021;28;19920;-71
2023/04/22 08:11:08;;;;;;;;;;;16.10;99.90;;;;;;5073499;28;20329;-71
2023/04/22 08:13:33;;;;;;;;;;;16.10;99.90;;;;;;5073534;28;19909;-71
2023/04/22 08:16:02;;;;;;;;;;;16.10;99.90;;;;;;5073560;28;19909;-71
2023/04/22 08:18:27;;;;;;;;;;;16.10;99.90;;;;;;5072698;28;19927;-71
2023/04/22 08:20:53;;;;;;;;;;;16.20;99.90;;;;;;5073153;28;19912;-72
2023/04/22 08:23:20;;;;;;;;;;;16.20;99.90;;;;;;5071851;28;20041;-71
2023/04/22 08:25:46;;;;;;;;;;;16.20;99.90;;;;;;5073314;28;19908;-72
2023/04/22 08:28:11;;;;;;;;;;;16.30;99.90;;;;;;5072636;28;20003;-71
2023/04/22 08:30:37;;;;;;;;;;;16.40;99.90;;;;;;5072939;28;19940;-71
2023/04/22 08:33:03;;;;;;;;;;;16.50;99.90;;;;;;5073452;28;19915;-70
2023/04/22 08:35:28;;;;;;;;;;;16.50;99.90;;;;;;5073271;28;19913;-72
2023/04/22 08:37:54;;;;;;;;;;;16.60;99.90;;;;;;5072656;28;19909;-71
2023/04/22 08:40:20;;;;;;;;;;;16.60;99.90;;;;;;5073105;28;19919;-71
2023/04/22 08:42:45;;;;;;;;;;;16.70;99.90;;;;;;5074783;28;19908;-73
2023/04/22 08:45:12;;;;;;;;;;;16.60;99.90;;;;;;5075986;28;19908;-70
2023/04/22 08:47:38;;;;;;;;;;;16.70;99.90;;;;;;5075655;28;19953;-71
2023/04/22 08:50:05;;;;;;;;;;;16.80;99.90;;;;;;5075655;28;20003;-71
2023/04/22 08:52:31;;;;;;;;;;;16.80;99.90;;;;;;5076214;28;19916;-74
2023/04/22 08:54:56;;;;;;;;;;;16.90;99.90;;;;;;5075244;28;19909;-71
2023/04/22 08:57:22;;;;;;;;;;;17.00;99.90;;;;;;5076310;28;20010;-71
2023/04/22 08:59:48;;;;;;;;;;;17.10;99.90;;;;;;5074763;28;20381;-70
2023/04/22 09:02:21;;;;;;;;;;;17.20;99.90;;;;;;5073428;28;19909;-70
2023/04/22 09:04:47;;;;;;;;;;;17.30;99.90;;;;;;5074698;28;19915;-71
2023/04/22 09:07:19;;;;;;;;;;;17.30;99.90;;;;;;5074894;28;19913;-72
2023/04/22 09:09:44;;;;;;;;;;;17.30;99.90;;;;;;5075225;28;19958;-71
2023/04/22 09:12:10;;;;;;;;;;;17.40;99.90;;;;;;5076274;28;20293;-70
2023/04/22 09:14:36;;;;;;;;;;;17.40;99.90;;;;;;5076211;28;19909;-72
2023/04/22 09:17:02;;;;;;;;;;;17.50;99.90;;;;;;5074805;28;19991;-70
2023/04/22 09:19:28;;;;;;;;;;;17.60;99.90;;;;;;5076258;28;20019;-71
2023/04/22 09:21:56;;;;;;;;;;;17.60;99.90;;;;;;5076076;28;19995;-71
2023/04/22 09:24:22;;;;;;;;;;;17.60;99.90;;;;;;5074640;28;19998;-71
2023/04/22 09:26:48;;;;;;;;;;;17.70;99.90;;;;;;5075920;28;19916;-71
2023/04/22 09:29:14;;;;;;;;;;;17.80;99.90;;;;;;5075570;28;19913;-72
2023/04/22 09:31:40;;;;;;;;;;;17.90;99.90;;;;;;5074485;28;19909;-71
2023/04/22 09:34:06;;;;;;;;;;;18.00;99.90;;;;;;5074715;28;19966;-70
2023/04/22 09:36:36;;;;;;;;;;;18.10;99.90;;;;;;5075900;28;19913;-71
2023/04/22 09:39:12;;;;;;;;;;;18.10;99.90;;;;;;5075309;28;20378;-71
2023/04/22 09:41:38;;;;;;;;;;;18.10;99.90;;;;;;5075376;28;19931;-71
2023/04/22 09:44:07;;;;;;;;;;;18.00;99.90;;;;;;5074208;28;19920;-71
2023/04/22 09:46:33;;;;;;;;;;;18.00;99.90;;;;;;5074021;28;19908;-71
2023/04/22 09:48:59;;;;;;;;;;;18.00;99.90;;;;;;5074747;28;19989;-71
2023/04/22 09:51:26;;;;;;;;;;;18.00;99.90;;;;;;5074133;28;19908;-71
2023/04/22 09:54:07;;;;;;;;;;;17.90;99.90;;;;;;5075226;28;19912;-70
2023/04/22 09:56:39;;;;;;;;;;;17.90;99.90;;;;;;5076202;28;19915;-71
2023/04/22 09:59:05;;;;;;;;;;;17.90;99.90;;;;;;5075271;28;19912;-71
2023/04/22 10:01:34;;;;;;;;;;;17.70;99.90;;;;;;5074366;28;19909;-71
2023/04/22 10:04:00;;;;;;;;;;;17.70;99.90;;;;;;5075831;28;19908;-71
2023/04/22 10:06:27;;;;;;;;;;;17.60;99.90;;;;;;5073756;28;19908;-72
2023/04/22 10:08:52;;;;;;;;;;;17.50;99.90;;;;;;5074742;28;19927;-69
2023/04/22 10:11:18;;;;;;;;;;;17.50;99.90;;;;;;5075847;28;19909;-71
2023/04/22 10:13:43;;;;;;;;;;;17.40;99.90;;;;;;5075212;28;19935;-72
2023/04/22 10:16:09;;;;;;;;;;;17.30;99.90;;;;;;5075228;28;20370;-71
2023/04/22 10:18:38;;;;;;;;;;;17.30;99.90;;;;;;5075151;28;19908;-70
2023/04/22 10:21:04;;;;;;;;;;;17.40;99.90;;;;;;5075060;28;19923;-71
2023/04/22 10:23:31;;;;;;;;;;;17.40;99.90;;;;;;5073800;28;19913;-77
2023/04/22 10:25:57;;;;;;;;;;;17.30;99.90;;;;;;5074088;28;20475;-71
2023/04/22 10:28:23;;;;;;;;;;;17.20;99.90;;;;;;5074833;28;19922;-71
2023/04/22 10:30:49;;;;;;;;;;;17.30;99.90;;;;;;5073917;28;19909;-71
2023/04/22 10:33:22;;;;;;;;;;;17.30;99.90;;;;;;5075399;28;19954;-72
2023/04/22 10:36:08;;;;;;;;;;;17.40;99.90;;;;;;5074566;28;20293;-72
2023/04/22 10:38:39;;;;;;;;;;;17.50;99.90;;;;;;5072813;28;19908;-71
2023/04/22 10:41:05;;;;;;;;;;;17.60;99.90;;;;;;5075227;28;19936;-71
2023/04/22 10:43:47;;;;;;;;;;;17.70;99.90;;;;;;5074867;28;20378;-71
2023/04/22 10:46:31;;;;;;;;;;;17.80;99.90;;;;;;5056924;28;20370;-73
2023/04/22 10:48:57;;;;;;;;;;;17.90;99.90;;;;;;5073419;28;19914;-72
2023/04/22 10:51:39;;;;;;;;;;;17.90;99.90;;;;;;5075139;28;19908;-71
2023/04/22 10:54:05;;;;;;;;;;;17.90;99.90;;;;;;5073356;28;19991;-71
2023/04/22 10:56:31;;;;;;;;;;;17.80;99.90;;;;;;5074780;28;19908;-71
2023/04/22 10:58:57;;;;;;;;;;;17.80;99.90;;;;;;5072753;28;20313;-72
2023/04/22 11:01:22;;;;;;;;;;;17.70;99.90;;;;;;5073329;28;19913;-71
2023/04/22 11:03:50;;;;;;;;;;;17.60;99.90;;;;;;5072984;28;19908;-72
2023/04/22 11:06:21;;;;;;;;;;;17.60;99.90;;;;;;5074040;28;19908;-71
2023/04/22 11:08:47;;;;;;;;;;;17.50;99.90;;;;;;5056140;28;19919;-70
2023/04/22 11:11:15;;;;;;;;;;;17.60;99.90;;;;;;5073761;28;19917;-71
2023/04/22 11:13:42;;;;;;;;;;;17.50;99.90;;;;;;5073349;28;19943;-72
2023/04/22 11:16:08;;;;;;;;;;;17.50;99.90;;;;;;5072328;28;19909;-71
2023/04/22 11:18:34;;;;;;;;;;;17.50;99.90;;;;;;5073776;28;19908;-71
2023/04/22 11:21:07;;;;;;;;;;;17.50;99.90;;;;;;5074036;28;20003;-71
2023/04/22 11:23:33;;;;;;;;;;;17.60;99.90;;;;;;5073939;28;19909;-74
2023/04/22 11:26:04;;;;;;;;;;;17.60;99.90;;;;;;5074331;28;20007;-71
2023/04/22 11:28:29;;;;;;;;;;;17.70;99.90;;;;;;5073915;28;19920;-71
2023/04/22 11:31:02;;;;;;;;;;;17.80;99.90;;;;;;5074242;28;19936;-71
2023/04/22 11:33:28;;;;;;;;;;;17.90;99.90;;;;;;5073856;28;20385;-70
2023/04/22 11:35:54;;;;;;;;;;;17.80;99.90;;;;;;5072796;28;19909;-72
2023/04/22 11:38:19;;;;;;;;;;;17.90;99.90;;;;;;5071777;28;19915;-72
2023/04/22 11:40:45;;;;;;;;;;;18.00;99.90;;;;;;5073629;28;19912;-71
2023/04/22 11:43:11;;;;;;;;;;;18.10;99.90;;;;;;5074303;28;19916;-71
2023/04/22 11:45:37;;;;;;;;;;;18.20;99.90;;;;;;5073088;28;19908;-72
2023/04/22 11:48:04;;;;;;;;;;;18.40;99.90;;;;;;5074441;28;19908;-72
2023/04/22 11:50:31;;;;;;;;;;;18.40;99.90;;;;;;5073257;28;19909;-74
2023/04/22 11:52:56;;;;;;;;;;;18.50;99.90;;;;;;5074716;28;20354;-71
2023/04/22 11:55:25;;;;;;;;;;;18.60;99.90;;;;;;5072736;28;19916;-72
2023/04/22 11:57:54;;;;;;;;;;;18.60;99.90;;;;;;5074020;28;19936;-72
2023/04/22 12:00:21;;;;;;;;;;;18.60;99.90;;;;;;5073818;28;19916;-71
2023/04/22 12:03:16;;;;;;;;;;;18.60;99.90;;;;;;5072998;28;19909;-71
2023/04/22 12:05:46;;;;;;;;;;;18.50;99.90;;;;;;5063330;28;20362;-71
2023/04/22 12:08:16;;;;;;;;;;;18.40;99.90;;;;;;5071473;28;20368;-71
2023/04/22 12:10:43;;;;;;;;;;;18.40;99.90;;;;;;5072221;28;19912;-71
2023/04/22 12:13:09;;;;;;;;;;;18.40;99.90;;;;;;5074182;28;20007;-71
2023/04/22 12:15:39;;;;;;;;;;;18.50;99.90;;;;;;5072808;28;19931;-71
2023/04/22 12:18:05;;;;;;;;;;;18.40;99.90;;;;;;5076057;28;19957;-70
2023/04/22 12:20:32;;;;;;;;;;;18.40;99.90;;;;;;5078040;28;19991;-74
2023/04/22 12:22:58;;;;;;;;;;;18.30;99.90;;;;;;5077676;28;19908;-71
2023/04/22 12:25:23;;;;;;;;;;;18.50;99.90;;;;;;5077073;28;20431;-71
2023/04/22 12:27:49;;;;;;;;;;;18.40;99.90;;;;;;5075070;28;19917;-72
2023/04/22 12:30:15;;;;;;;;;;;18.40;99.90;;;;;;5075555;28;19915;-71
2023/04/22 12:32:40;;;;;;;;;;;18.40;99.90;;;;;;5075649;28;19954;-71
2023/04/22 12:35:07;;;;;;;;;;;18.40;99.90;;;;;;5076473;28;19914;-71
2023/04/22 12:37:33;;;;;;;;;;;18.40;99.90;;;;;;5075392;28;19909;-71
2023/04/22 12:39:59;;;;;;;;;;;18.40;99.90;;;;;;5076873;28;20022;-72
2023/04/22 12:42:25;;;;;;;;;;;18.40;99.90;;;;;;5076878;28;19923;-71
2023/04/22 12:44:50;;;;;;;;;;;18.40;99.90;;;;;;5076714;28;19913;-70
2023/04/22 12:47:16;;;;;;;;;;;18.50;99.90;;;;;;5074890;28;19920;-71
2023/04/22 12:49:43;;;;;;;;;;;18.40;99.90;;;;;;5075575;28;19912;-75
2023/04/22 12:52:09;;;;;;;;;;;18.40;99.90;;;;;;5076569;28;20009;-70
2023/04/22 12:54:34;;;;;;;;;;;18.40;99.90;;;;;;5075187;28;19908;-71
2023/04/22 12:57:01;;;;;;;;;;;18.40;99.90;;;;;;5075379;28;19966;-72
2023/04/22 12:59:26;;;;;;;;;;;18.30;99.90;;;;;;5074946;28;19919;-71
2023/04/22 13:01:53;;;;;;;;;;;18.40;99.90;;;;;;5075829;28;19995;-72
2023/04/22 13:04:19;;;;;;;;;;;18.30;99.90;;;;;;5075958;28;19915;-71
2023/04/22 13:06:45;;;;;;;;;;;18.30;99.90;;;;;;5076356;28;19908;-71
2023/04/22 13:09:11;;;;;;;;;;;18.30;99.90;;;;;;5075784;28;19909;-73
2023/04/22 13:11:37;;;;;;;;;;;18.30;99.90;;;;;;5074418;28;19964;-72
2023/04/22 13:14:03;;;;;;;;;;;18.30;99.90;;;;;;5075004;28;20347;-72
2023/04/22 13:16:28;;;;;;;;;;;18.30;99.90;;;;;;5075925;28;19944;-72
2023/04/22 13:18:54;;;;;;;;;;;18.20;99.90;;;;;;5074157;28;19916;-71
2023/04/22 13:21:20;;;;;;;;;;;18.30;99.90;;;;;;5076045;28;19920;-71
2023/04/22 13:23:45;;;;;;;;;;;18.30;99.90;;;;;;5074820;28;19915;-71
2023/04/22 13:26:11;;;;;;;;;;;18.20;99.90;;;;;;5074744;28;20038;-71
2023/04/22 13:28:37;;;;;;;;;;;18.20;99.90;;;;;;5074018;28;19916;-71
2023/04/22 13:31:02;;;;;;;;;;;18.30;99.90;;;;;;5076570;28;20003;-72
2023/04/22 13:33:28;;;;;;;;;;;18.40;99.90;;;;;;5074770;28;20408;-71
2023/04/22 13:35:54;;;;;;;;;;;18.30;99.90;;;;;;5074598;28;19924;-71
2023/04/22 13:38:20;;;;;;;;;;;18.40;99.90;;;;;;5075530;28;20317;-71
2023/04/22 13:40:45;;;;;;;;;;;18.50;99.90;;;;;;5074303;28;19916;-72
2023/04/22 13:43:11;;;;;;;;;;;18.50;99.90;;;;;;5076040;28;19912;-71
2023/04/22 13:45:36;;;;;;;;;;;18.50;99.90;;;;;;5075706;28;19991;-70
2023/04/22 13:48:02;;;;;;;;;;;18.60;99.90;;;;;;5075198;28;19951;-71
2023/04/22 13:50:28;;;;;;;;;;;18.60;99.90;;;;;;5075354;28;19912;-71
2023/04/22 13:52:54;;;;;;;;;;;18.70;99.90;;;;;;5075095;28;20453;-72
2023/04/22 13:55:19;;;;;;;;;;;18.70;99.90;;;;;;5075326;28;19959;-72
2023/04/22 13:57:45;;;;;;;;;;;18.70;99.90;;;;;;5073551;28;19908;-72
2023/04/22 14:00:11;;;;;;;;;;;18.80;99.90;;;;;;5075022;28;20293;-72
2023/04/22 14:02:37;;;;;;;;;;;18.70;99.90;;;;;;5074481;28;20438;-72
2023/04/22 14:05:03;;;;;;;;;;;18.50;99.90;;;;;;5074856;28;19952;-72
2023/04/22 14:07:28;;;;;;;;;;;18.40;99.90;;;;;;5072793;28;20294;-72
2023/04/22 14:09:54;;;;;;;;;;;18.50;99.90;;;;;;5074129;28;19909;-71
2023/04/22 14:12:20;;;;;;;;;;;18.60;99.90;;;;;;5074197;28;20368;-70